sensor_id;sensor_type;location;lat;lon;timestamp;pressure;altitude;pressure_sealevel;temperature;humidity
13695;BME280;6919;52.344;14.518;2023-03-22T00:02:26;100462.03;;;10.02;100.00
13695;BME280;6919;52.344;14.518;2023-03-22T00:04:57;100454.13;;;10.00;100.00
13695;BME280;6919;52.344;14.518;2023-03-22T00:07:26;100448.94;;;10.16;100.00
13695;BME280;6919;52.344;14.518;2023-03-22T00:09:54;100448.22;;;9.97;100.00
13695;BME280;6919;52.344;14.518;2023-03-22T00:12:22;100455.25;;;10.07;100.00
13695;BME280;6919;52.344;14.518;2023-03-22T00:14:51;100450.44;;;10.01;100.00
13695;BME280;6919;52.344;14.518;2023-03-22T00:17:19;100453.38;;;9.90;100.00
13695;BME280;6919;52.344;14.518;2023-03-22T00:19:48;100451.91;;;9.96;100.00
13695;BME280;6919;52.344;14.518;2023-03-22T00:22:22;100447.56;;;10.12;100.00
13695;BME280;6919;52.344;14.518;2023-03-22T00:24:51;100444.38;;;10.09;100.00
13695;BME280;6919;52.344;14.518;2023-03-22T00:27:19;100445.94;;;10.02;100.00
13695;BME280;6919;52.344;14.518;2023-03-22T00:29:47;100443.41;;;10.18;100.00
13695;BME280;6919;52.344;14.518;2023-03-22T00:32:15;100446.78;;;10.02;100.00
13695;BME280;6919;52.344;14.518;2023-03-22T00:34:44;100443.41;;;10.00;100.00
13695;BME280;6919;52.344;14.518;2023-03-22T00:37:12;100452.56;;;10.07;100.00
13695;BME280;6919;52.344;14.518;2023-03-22T00:39:43;100442.34;;;10.11;100.00
13695;BME280;6919;52.344;14.518;2023-03-22T00:42:11;100442.06;;;9.96;100.00
13695;BME280;6919;52.344;14.518;2023-03-22T00:44:40;100433.63;;;9.91;100.00
13695;BME280;6919;52.344;14.518;2023-03-22T00:47:08;100440.34;;;9.95;100.00
13695;BME280;6919;52.344;14.518;2023-03-22T00:49:36;100426.59;;;9.90;100.00
13695;BME280;6919;52.344;14.518;2023-03-22T00:52:04;100419.88;;;9.86;100.00
13695;BME280;6919;52.344;14.518;2023-03-22T00:54:33;100417.25;;;9.94;100.00
13695;BME280;6919;52.344;14.518;2023-03-22T00:57:02;100428.72;;;10.04;100.00
13695;BME280;6919;52.344;14.518;2023-03-22T00:59:31;100437.59;;;10.22;100.00
13695;BME280;6919;52.344;14.518;2023-03-22T01:02:03;100428.34;;;10.17;100.00
13695;BME280;6919;52.344;14.518;2023-03-22T01:04:32;100427.88;;;10.21;100.00
13695;BME280;6919;52.344;14.518;2023-03-22T01:07:01;100431.88;;;10.17;100.00
13695;BME280;6919;52.344;14.518;2023-03-22T01:09:33;100430.78;;;10.28;100.00
13695;BME280;6919;52.344;14.518;2023-03-22T01:12:03;100429.19;;;10.17;100.00
13695;BME280;6919;52.344;14.518;2023-03-22T01:14:31;100422.00;;;10.00;100.00
13695;BME280;6919;52.344;14.518;2023-03-22T01:16:59;100414.94;;;9.99;100.00
13695;BME280;6919;52.344;14.518;2023-03-22T01:19:28;100418.25;;;10.11;100.00
13695;BME280;6919;52.344;14.518;2023-03-22T01:21:56;100418.16;;;10.03;100.00
13695;BME280;6919;52.344;14.518;2023-03-22T01:24:24;100416.88;;;9.89;100.00
13695;BME280;6919;52.344;14.518;2023-03-22T01:26:53;100411.13;;;9.84;100.00
13695;BME280;6919;52.344;14.518;2023-03-22T01:29:23;100407.09;;;9.80;100.00
13695;BME280;6919;52.344;14.518;2023-03-22T01:31:52;100402.72;;;9.79;100.00
13695;BME280;6919;52.344;14.518;2023-03-22T01:34:20;100401.41;;;9.83;100.00
13695;BME280;6919;52.344;14.518;2023-03-22T01:36:48;100402.19;;;9.76;100.00
13695;BME280;6919;52.344;14.518;2023-03-22T01:39:17;100413.03;;;9.74;100.00
13695;BME280;6919;52.344;14.518;2023-03-22T01:41:45;100399.53;;;9.58;100.00
13695;BME280;6919;52.344;14.518;2023-03-22T01:44:16;100405.38;;;9.62;100.00
13695;BME280;6919;52.344;14.518;2023-03-22T01:46:48;100403.50;;;9.54;100.00
13695;BME280;6919;52.344;14.518;2023-03-22T01:49:21;100391.94;;;9.54;100.00
13695;BME280;6919;52.344;14.518;2023-03-22T01:51:54;100394.00;;;9.60;100.00
13695;BME280;6919;52.344;14.518;2023-03-22T01:54:31;100400.28;;;9.68;100.00
13695;BME280;6919;52.344;14.518;2023-03-22T01:57:02;100402.25;;;9.66;100.00
13695;BME280;6919;52.344;14.518;2023-03-22T01:59:30;100398.22;;;9.62;100.00
13695;BME280;6919;52.344;14.518;2023-03-22T02:02:01;100392.94;;;9.53;100.00
13695;BME280;6919;52.344;14.518;2023-03-22T02:04:33;100401.72;;;9.45;100.00
13695;BME280;6919;52.344;14.518;2023-03-22T02:07:08;100402.03;;;9.42;100.00
13695;BME280;6919;52.344;14.518;2023-03-22T02:09:42;100396.00;;;9.40;100.00
13695;BME280;6919;52.344;14.518;2023-03-22T02:12:24;100396.78;;;9.50;100.00
13695;BME280;6919;52.344;14.518;2023-03-22T02:15:04;100397.59;;;9.51;100.00
13695;BME280;6919;52.344;14.518;2023-03-22T02:17:47;100396.66;;;9.42;100.00
13695;BME280;6919;52.344;14.518;2023-03-22T02:24:12;100401.63;;;9.55;100.00
13695;BME280;6919;52.344;14.518;2023-03-22T02:27:30;100387.44;;;9.54;100.00
13695;BME280;6919;52.344;14.518;2023-03-22T02:30:25;100373.97;;;9.46;100.00
13695;BME280;6919;52.344;14.518;2023-03-22T02:33:22;100372.75;;;9.58;100.00
13695;BME280;6919;52.344;14.518;2023-03-22T02:36:23;100373.81;;;9.48;100.00
13695;BME280;6919;52.344;14.518;2023-03-22T02:39:14;100381.78;;;9.57;100.00
13695;BME280;6919;52.344;14.518;2023-03-22T02:42:08;100381.78;;;9.57;100.00
13695;BME280;6919;52.344;14.518;2023-03-22T02:44:46;100385.72;;;9.53;100.00
13695;BME280;6919;52.344;14.518;2023-03-22T02:47:23;100386.28;;;9.57;100.00
13695;BME280;6919;52.344;14.518;2023-03-22T02:50:04;100382.00;;;9.64;100.00
13695;BME280;6919;52.344;14.518;2023-03-22T02:52:39;100379.78;;;9.59;100.00
13695;BME280;6919;52.344;14.518;2023-03-22T02:55:17;100382.31;;;9.61;100.00
13695;BME280;6919;52.344;14.518;2023-03-22T02:57:52;100375.03;;;9.53;100.00
13695;BME280;6919;52.344;14.518;2023-03-22T03:00:25;100368.72;;;9.54;100.00
13695;BME280;6919;52.344;14.518;2023-03-22T03:02:58;100370.22;;;9.57;100.00
13695;BME280;6919;52.344;14.518;2023-03-22T03:05:31;100378.25;;;9.57;100.00
13695;BME280;6919;52.344;14.518;2023-03-22T03:08:02;100379.31;;;9.46;100.00
13695;BME280;6919;52.344;14.518;2023-03-22T03:10:33;100375.56;;;9.57;100.00
13695;BME280;6919;52.344;14.518;2023-03-22T03:13:01;100379.84;;;9.50;100.00
13695;BME280;6919;52.344;14.518;2023-03-22T03:15:29;100375.72;;;9.55;100.00
13695;BME280;6919;52.344;14.518;2023-03-22T03:18:18;100363.25;;;9.46;100.00
13695;BME280;6919;52.344;14.518;2023-03-22T03:21:01;100372.34;;;9.53;100.00
13695;BME280;6919;52.344;14.518;2023-03-22T03:23:47;100374.19;;;9.35;100.00
13695;BME280;6919;52.344;14.518;2023-03-22T03:26:27;100369.53;;;9.37;100.00
13695;BME280;6919;52.344;14.518;2023-03-22T03:29:06;100372.59;;;9.42;100.00
13695;BME280;6919;52.344;14.518;2023-03-22T03:31:42;100367.34;;;9.50;100.00
13695;BME280;6919;52.344;14.518;2023-03-22T03:34:17;100360.59;;;9.64;100.00
13695;BME280;6919;52.344;14.518;2023-03-22T03:36:56;100370.06;;;9.58;100.00
13695;BME280;6919;52.344;14.518;2023-03-22T03:39:31;100369.38;;;9.56;100.00
13695;BME280;6919;52.344;14.518;2023-03-22T03:42:03;100370.00;;;9.50;100.00
13695;BME280;6919;52.344;14.518;2023-03-22T03:44:35;100368.41;;;9.57;100.00
13695;BME280;6919;52.344;14.518;2023-03-22T03:47:06;100375.78;;;9.63;100.00
13695;BME280;6919;52.344;14.518;2023-03-22T03:49:35;100378.72;;;9.52;100.00
13695;BME280;6919;52.344;14.518;2023-03-22T03:52:04;100378.25;;;9.57;100.00
13695;BME280;6919;52.344;14.518;2023-03-22T03:54:33;100381.78;;;9.57;100.00
13695;BME280;6919;52.344;14.518;2023-03-22T03:57:02;100382.91;;;9.55;100.00
13695;BME280;6919;52.344;14.518;2023-03-22T03:59:31;100386.13;;;9.58;100.00
13695;BME280;6919;52.344;14.518;2023-03-22T04:01:59;100392.50;;;9.57;100.00
13695;BME280;6919;52.344;14.518;2023-03-22T04:04:28;100380.56;;;9.52;100.00
13695;BME280;6919;52.344;14.518;2023-03-22T04:06:59;100388.91;;;9.49;100.00
13695;BME280;6919;52.344;14.518;2023-03-22T04:09:30;100388.13;;;9.39;100.00
13695;BME280;6919;52.344;14.518;2023-03-22T04:11:59;100383.44;;;9.41;100.00
13695;BME280;6919;52.344;14.518;2023-03-22T04:14:29;100387.13;;;9.40;100.00
13695;BME280;6919;52.344;14.518;2023-03-22T04:16:57;100404.63;;;9.34;100.00
13695;BME280;6919;52.344;14.518;2023-03-22T04:19:25;100400.78;;;9.37;100.00
13695;BME280;6919;52.344;14.518;2023-03-22T04:21:54;100399.41;;;9.15;100.00
13695;BME280;6919;52.344;14.518;2023-03-22T04:24:22;100395.44;;;9.19;100.00
13695;BME280;6919;52.344;14.518;2023-03-22T04:26:50;100401.09;;;9.34;100.00
13695;BME280;6919;52.344;14.518;2023-03-22T04:29:19;100397.03;;;9.12;100.00
13695;BME280;6919;52.344;14.518;2023-03-22T04:31:50;100398.69;;;9.13;100.00
13695;BME280;6919;52.344;14.518;2023-03-22T04:34:19;100402.59;;;9.19;100.00
13695;BME280;6919;52.344;14.518;2023-03-22T04:36:47;100411.28;;;9.03;100.00
13695;BME280;6919;52.344;14.518;2023-03-22T04:39:16;100402.28;;;9.04;100.00
13695;BME280;6919;52.344;14.518;2023-03-22T04:41:45;100404.81;;;9.06;100.00
13695;BME280;6919;52.344;14.518;2023-03-22T04:44:13;100394.69;;;8.99;100.00
13695;BME280;6919;52.344;14.518;2023-03-22T04:46:41;100391.31;;;8.97;100.00
13695;BME280;6919;52.344;14.518;2023-03-22T04:49:11;100398.53;;;8.97;100.00
13695;BME280;6919;52.344;14.518;2023-03-22T04:51:40;100388.72;;;8.88;100.00
13695;BME280;6919;52.344;14.518;2023-03-22T04:54:08;100390.88;;;9.02;100.00
13695;BME280;6919;52.344;14.518;2023-03-22T04:56:36;100397.63;;;8.79;100.00
13695;BME280;6919;52.344;14.518;2023-03-22T04:59:04;100382.28;;;8.81;100.00
13695;BME280;6919;52.344;14.518;2023-03-22T05:01:33;100389.28;;;8.82;100.00
13695;BME280;6919;52.344;14.518;2023-03-22T05:04:03;100393.56;;;9.02;100.00
13695;BME280;6919;52.344;14.518;2023-03-22T05:06:33;100391.56;;;8.77;100.00
13695;BME280;6919;52.344;14.518;2023-03-22T05:09:01;100389.34;;;8.72;100.00
13695;BME280;6919;52.344;14.518;2023-03-22T05:11:29;100385.84;;;8.72;100.00
13695;BME280;6919;52.344;14.518;2023-03-22T05:13:58;100391.34;;;8.70;100.00
13695;BME280;6919;52.344;14.518;2023-03-22T05:16:26;100388.97;;;8.67;100.00
13695;BME280;6919;52.344;14.518;2023-03-22T05:18:55;100419.88;;;8.70;100.00
13695;BME280;6919;52.344;14.518;2023-03-22T05:21:24;100413.53;;;8.71;100.00
13695;BME280;6919;52.344;14.518;2023-03-22T05:23:57;100422.41;;;8.71;100.00
13695;BME280;6919;52.344;14.518;2023-03-22T05:26:26;100421.06;;;8.58;100.00
13695;BME280;6919;52.344;14.518;2023-03-22T05:28:55;100421.13;;;8.75;100.00
13695;BME280;6919;52.344;14.518;2023-03-22T05:31:23;100418.69;;;8.55;100.00
13695;BME280;6919;52.344;14.518;2023-03-22T05:33:54;100424.53;;;8.68;100.00
13695;BME280;6919;52.344;14.518;2023-03-22T05:36:22;100414.44;;;8.62;100.00
13695;BME280;6919;52.344;14.518;2023-03-22T05:38:50;100419.66;;;8.63;100.00
13695;BME280;6919;52.344;14.518;2023-03-22T05:41:20;100420.19;;;8.67;100.00
13695;BME280;6919;52.344;14.518;2023-03-22T05:43:49;100419.16;;;8.77;100.00
13695;BME280;6919;52.344;14.518;2023-03-22T05:46:17;100412.97;;;8.77;100.00
13695;BME280;6919;52.344;14.518;2023-03-22T05:48:45;100422.22;;;8.82;100.00
13695;BME280;6919;52.344;14.518;2023-03-22T05:51:15;100421.78;;;8.87;100.00
13695;BME280;6919;52.344;14.518;2023-03-22T05:53:46;100422.88;;;8.94;100.00
13695;BME280;6919;52.344;14.518;2023-03-22T05:56:15;100410.81;;;8.90;100.00
13695;BME280;6919;52.344;14.518;2023-03-22T05:58:44;100408.94;;;8.90;100.00
13695;BME280;6919;52.344;14.518;2023-03-22T06:01:13;100406.69;;;8.95;100.00
13695;BME280;6919;52.344;14.518;2023-03-22T06:03:42;100405.50;;;9.07;100.00
13695;BME280;6919;52.344;14.518;2023-03-22T06:06:10;100409.41;;;9.13;100.00
13695;BME280;6919;52.344;14.518;2023-03-22T06:08:40;100404.75;;;9.15;100.00
13695;BME280;6919;52.344;14.518;2023-03-22T06:11:08;100408.00;;;9.09;100.00
13695;BME280;6919;52.344;14.518;2023-03-22T06:13:36;100406.06;;;9.29;100.00
13695;BME280;6919;52.344;14.518;2023-03-22T06:16:06;100404.53;;;9.26;100.00
13695;BME280;6919;52.344;14.518;2023-03-22T06:18:35;100405.47;;;9.35;100.00
13695;BME280;6919;52.344;14.518;2023-03-22T06:21:04;100403.69;;;9.26;100.00
13695;BME280;6919;52.344;14.518;2023-03-22T06:23:32;100399.28;;;9.34;100.00
13695;BME280;6919;52.344;14.518;2023-03-22T06:26:00;100389.88;;;9.48;100.00
13695;BME280;6919;52.344;14.518;2023-03-22T06:28:28;100386.97;;;9.41;100.00
13695;BME280;6919;52.344;14.518;2023-03-22T06:30:57;100386.44;;;9.55;100.00
13695;BME280;6919;52.344;14.518;2023-03-22T06:33:26;100380.72;;;9.50;100.00
13695;BME280;6919;52.344;14.518;2023-03-22T06:35:54;100377.34;;;9.66;100.00
13695;BME280;6919;52.344;14.518;2023-03-22T06:38:24;100373.28;;;9.62;100.00
13695;BME280;6919;52.344;14.518;2023-03-22T06:40:53;100362.81;;;9.68;100.00
13695;BME280;6919;52.344;14.518;2023-03-22T06:43:21;100365.94;;;9.64;100.00
13695;BME280;6919;52.344;14.518;2023-03-22T06:45:50;100375.94;;;9.79;100.00
13695;BME280;6919;52.344;14.518;2023-03-22T06:48:18;100371.97;;;9.83;100.00
13695;BME280;6919;52.344;14.518;2023-03-22T06:50:48;100372.50;;;9.69;100.00
13695;BME280;6919;52.344;14.518;2023-03-22T06:53:17;100375.41;;;9.93;100.00
13695;BME280;6919;52.344;14.518;2023-03-22T06:55:47;100365.41;;;9.78;100.00
13695;BME280;6919;52.344;14.518;2023-03-22T06:58:15;100368.06;;;9.78;100.00
13695;BME280;6919;52.344;14.518;2023-03-22T07:00:44;100360.72;;;9.80;100.00
13695;BME280;6919;52.344;14.518;2023-03-22T07:03:13;100369.66;;;9.88;100.00
13695;BME280;6919;52.344;14.518;2023-03-22T07:05:43;100363.31;;;9.89;100.00
13695;BME280;6919;52.344;14.518;2023-03-22T07:08:13;100375.09;;;9.96;100.00
13695;BME280;6919;52.344;14.518;2023-03-22T07:10:42;100366.00;;;9.89;100.00
13695;BME280;6919;52.344;14.518;2023-03-22T07:13:10;100357.88;;;9.99;100.00
13695;BME280;6919;52.344;14.518;2023-03-22T07:15:39;100365.03;;;9.98;100.00
13695;BME280;6919;52.344;14.518;2023-03-22T07:18:07;100357.09;;;10.06;100.00
13695;BME280;6919;52.344;14.518;2023-03-22T07:20:36;100352.91;;;10.29;100.00
13695;BME280;6919;52.344;14.518;2023-03-22T07:23:08;100337.38;;;10.07;100.00
13695;BME280;6919;52.344;14.518;2023-03-22T07:25:38;100344.72;;;10.31;100.00
13695;BME280;6919;52.344;14.518;2023-03-22T07:28:07;100346.41;;;10.40;100.00
13695;BME280;6919;52.344;14.518;2023-03-22T07:30:37;100344.78;;;10.47;100.00
13695;BME280;6919;52.344;14.518;2023-03-22T07:33:08;100332.50;;;10.36;100.00
13695;BME280;6919;52.344;14.518;2023-03-22T07:35:38;100325.88;;;10.48;100.00
13695;BME280;6919;52.344;14.518;2023-03-22T07:38:06;100331.19;;;10.40;100.00
13695;BME280;6919;52.344;14.518;2023-03-22T07:40:35;100326.16;;;10.37;100.00
13695;BME280;6919;52.344;14.518;2023-03-22T07:43:06;100318.38;;;10.26;100.00
13695;BME280;6919;52.344;14.518;2023-03-22T07:45:38;100314.31;;;10.48;100.00
13695;BME280;6919;52.344;14.518;2023-03-22T07:48:08;100307.94;;;10.49;100.00
13695;BME280;6919;52.344;14.518;2023-03-22T07:50:38;100301.06;;;10.46;100.00
13695;BME280;6919;52.344;14.518;2023-03-22T07:53:10;100291.56;;;10.60;100.00
13695;BME280;6919;52.344;14.518;2023-03-22T07:55:39;100305.44;;;10.47;100.00
13695;BME280;6919;52.344;14.518;2023-03-22T07:58:10;100293.00;;;10.38;100.00
13695;BME280;6919;52.344;14.518;2023-03-22T08:00:39;100294.88;;;10.46;100.00
13695;BME280;6919;52.344;14.518;2023-03-22T08:03:10;100295.09;;;10.52;100.00
13695;BME280;6919;52.344;14.518;2023-03-22T08:05:42;100279.34;;;10.65;100.00
13695;BME280;6919;52.344;14.518;2023-03-22T08:08:11;100278.75;;;10.87;100.00
13695;BME280;6919;52.344;14.518;2023-03-22T08:10:41;100275.75;;;10.90;100.00
13695;BME280;6919;52.344;14.518;2023-03-22T08:13:12;100265.31;;;10.71;100.00
13695;BME280;6919;52.344;14.518;2023-03-22T08:15:44;100265.00;;;10.74;100.00
13695;BME280;6919;52.344;14.518;2023-03-22T08:18:13;100267.19;;;10.79;100.00
13695;BME280;6919;52.344;14.518;2023-03-22T08:20:42;100273.44;;;10.95;100.00
13695;BME280;6919;52.344;14.518;2023-03-22T08:23:15;100272.25;;;10.90;100.00
13695;BME280;6919;52.344;14.518;2023-03-22T08:25:48;100277.25;;;10.93;100.00
13695;BME280;6919;52.344;14.518;2023-03-22T08:28:19;100275.75;;;10.90;100.00
13695;BME280;6919;52.344;14.518;2023-03-22T08:30:48;100280.31;;;10.98;100.00
13695;BME280;6919;52.344;14.518;2023-03-22T08:33:16;100275.09;;;10.88;100.00
13695;BME280;6919;52.344;14.518;2023-03-22T08:35:48;100274.25;;;10.88;100.00
13695;BME280;6919;52.344;14.518;2023-03-22T08:38:16;100279.78;;;10.94;100.00
13695;BME280;6919;52.344;14.518;2023-03-22T08:40:46;100264.69;;;10.93;100.00
13695;BME280;6919;52.344;14.518;2023-03-22T08:43:14;100267.53;;;11.00;100.00
13695;BME280;6919;52.344;14.518;2023-03-22T08:45:44;100270.94;;;11.34;100.00
13695;BME280;6919;52.344;14.518;2023-03-22T08:48:13;100263.38;;;11.29;100.00
13695;BME280;6919;52.344;14.518;2023-03-22T08:50:41;100257.81;;;11.07;100.00
13695;BME280;6919;52.344;14.518;2023-03-22T08:53:10;100252.81;;;11.12;100.00
13695;BME280;6919;52.344;14.518;2023-03-22T08:55:39;100259.56;;;11.32;100.00
13695;BME280;6919;52.344;14.518;2023-03-22T08:58:11;100260.03;;;11.43;100.00
13695;BME280;6919;52.344;14.518;2023-03-22T09:00:41;100254.69;;;11.51;100.00
13695;BME280;6919;52.344;14.518;2023-03-22T09:03:17;100253.69;;;11.68;100.00
13695;BME280;6919;52.344;14.518;2023-03-22T09:05:45;100248.59;;;11.89;100.00
13695;BME280;6919;52.344;14.518;2023-03-22T09:08:13;100237.88;;;11.98;100.00
13695;BME280;6919;52.344;14.518;2023-03-22T09:10:46;100240.22;;;11.84;100.00
13695;BME280;6919;52.344;14.518;2023-03-22T09:13:18;100228.13;;;11.88;100.00
13695;BME280;6919;52.344;14.518;2023-03-22T09:15:47;100234.69;;;11.86;100.00
13695;BME280;6919;52.344;14.518;2023-03-22T09:18:16;100218.03;;;11.99;100.00
13695;BME280;6919;52.344;14.518;2023-03-22T09:20:45;100223.59;;;11.97;100.00
13695;BME280;6919;52.344;14.518;2023-03-22T09:23:14;100221.88;;;12.04;100.00
13695;BME280;6919;52.344;14.518;2023-03-22T09:25:43;100208.38;;;12.20;100.00
13695;BME280;6919;52.344;14.518;2023-03-22T09:28:12;100207.34;;;12.29;100.00
13695;BME280;6919;52.344;14.518;2023-03-22T09:30:41;100214.25;;;12.24;100.00
13695;BME280;6919;52.344;14.518;2023-03-22T09:33:11;100209.28;;;12.05;100.00
13695;BME280;6919;52.344;14.518;2023-03-22T09:35:41;100194.81;;;12.14;100.00
13695;BME280;6919;52.344;14.518;2023-03-22T09:38:10;100198.31;;;12.53;100.00
13695;BME280;6919;52.344;14.518;2023-03-22T09:40:50;100188.56;;;12.52;100.00
13695;BME280;6919;52.344;14.518;2023-03-22T09:43:28;100194.44;;;12.55;100.00
13695;BME280;6919;52.344;14.518;2023-03-22T09:46:00;100185.50;;;12.32;100.00
13695;BME280;6919;52.344;14.518;2023-03-22T09:48:34;100189.59;;;12.12;100.00
13695;BME280;6919;52.344;14.518;2023-03-22T09:51:14;100189.38;;;12.30;100.00
13695;BME280;6919;52.344;14.518;2023-03-22T09:53:45;100184.00;;;12.30;100.00
13695;BME280;6919;52.344;14.518;2023-03-22T09:56:21;100183.53;;;12.49;100.00
13695;BME280;6919;52.344;14.518;2023-03-22T09:59:00;100186.41;;;12.47;100.00
13695;BME280;6919;52.344;14.518;2023-03-22T10:01:43;100176.31;;;12.49;100.00
13695;BME280;6919;52.344;14.518;2023-03-22T10:04:47;100173.28;;;12.52;100.00
13695;BME280;6919;52.344;14.518;2023-03-22T10:07:27;100179.06;;;12.64;100.00
13695;BME280;6919;52.344;14.518;2023-03-22T10:10:08;100175.78;;;12.84;100.00
13695;BME280;6919;52.344;14.518;2023-03-22T10:12:44;100164.16;;;12.84;100.00
13695;BME280;6919;52.344;14.518;2023-03-22T10:15:16;100168.75;;;12.75;100.00
13695;BME280;6919;52.344;14.518;2023-03-22T10:17:52;100164.09;;;12.92;100.00
13695;BME280;6919;52.344;14.518;2023-03-22T10:20:32;100162.34;;;12.76;100.00
13695;BME280;6919;52.344;14.518;2023-03-22T10:23:10;100161.44;;;12.61;100.00
13695;BME280;6919;52.344;14.518;2023-03-22T10:25:41;100170.78;;;12.96;100.00
13695;BME280;6919;52.344;14.518;2023-03-22T10:28:18;100167.34;;;13.10;100.00
13695;BME280;6919;52.344;14.518;2023-03-22T10:30:52;100163.22;;;12.99;100.00
13695;BME280;6919;52.344;14.518;2023-03-22T10:33:44;100161.00;;;13.03;100.00
13695;BME280;6919;52.344;14.518;2023-03-22T10:36:21;100165.16;;;13.28;100.00
13695;BME280;6919;52.344;14.518;2023-03-22T10:38:58;100161.59;;;13.50;100.00
13695;BME280;6919;52.344;14.518;2023-03-22T10:41:31;100162.25;;;13.37;100.00
13695;BME280;6919;52.344;14.518;2023-03-22T10:44:02;100159.84;;;13.57;100.00
13695;BME280;6919;52.344;14.518;2023-03-22T10:46:37;100150.75;;;13.21;100.00
13695;BME280;6919;52.344;14.518;2023-03-22T10:49:20;100151.69;;;13.65;100.00
13695;BME280;6919;52.344;14.518;2023-03-22T10:51:53;100161.72;;;13.71;100.00
13695;BME280;6919;52.344;14.518;2023-03-22T10:54:25;100151.88;;;13.78;100.00
13695;BME280;6919;52.344;14.518;2023-03-22T10:56:53;100148.72;;;13.89;100.00
13695;BME280;6919;52.344;14.518;2023-03-22T10:59:44;100138.94;;;14.02;100.00
13695;BME280;6919;52.344;14.518;2023-03-22T11:02:19;100143.00;;;14.13;100.00
13695;BME280;6919;52.344;14.518;2023-03-22T11:04:51;100144.69;;;14.14;100.00
13695;BME280;6919;52.344;14.518;2023-03-22T11:07:31;100139.25;;;14.57;100.00
13695;BME280;6919;52.344;14.518;2023-03-22T11:10:20;100146.47;;;14.72;100.00
13695;BME280;6919;52.344;14.518;2023-03-22T11:12:57;100143.69;;;14.86;100.00
13695;BME280;6919;52.344;14.518;2023-03-22T11:15:40;100135.56;;;15.28;100.00
13695;BME280;6919;52.344;14.518;2023-03-22T11:18:14;100124.94;;;15.48;100.00
13695;BME280;6919;52.344;14.518;2023-03-22T11:20:55;100118.84;;;15.39;100.00
13695;BME280;6919;52.344;14.518;2023-03-22T11:23:26;100121.38;;;15.47;100.00
13695;BME280;6919;52.344;14.518;2023-03-22T11:26:08;100110.75;;;15.73;100.00
13695;BME280;6919;52.344;14.518;2023-03-22T11:28:44;100112.25;;;15.82;100.00
13695;BME280;6919;52.344;14.518;2023-03-22T11:31:16;100102.09;;;15.84;100.00
13695;BME280;6919;52.344;14.518;2023-03-22T11:33:56;100094.53;;;16.20;100.00
13695;BME280;6919;52.344;14.518;2023-03-22T11:36:26;100086.91;;;15.83;100.00
13695;BME280;6919;52.344;14.518;2023-03-22T11:39:00;100084.75;;;15.38;100.00
13695;BME280;6919;52.344;14.518;2023-03-22T11:41:35;100083.16;;;15.23;100.00
13695;BME280;6919;52.344;14.518;2023-03-22T11:44:08;100080.47;;;15.50;100.00
13695;BME280;6919;52.344;14.518;2023-03-22T11:46:38;100063.16;;;15.79;100.00
13695;BME280;6919;52.344;14.518;2023-03-22T11:49:13;100063.94;;;15.66;100.00
13695;BME280;6919;52.344;14.518;2023-03-22T11:51:44;100060.81;;;16.16;100.00
13695;BME280;6919;52.344;14.518;2023-03-22T11:54:28;100057.72;;;16.32;100.00
13695;BME280;6919;52.344;14.518;2023-03-22T11:57:03;100051.91;;;16.35;100.00
13695;BME280;6919;52.344;14.518;2023-03-22T11:59:38;100053.16;;;16.39;100.00
13695;BME280;6919;52.344;14.518;2023-03-22T12:02:19;100048.63;;;16.46;100.00
13695;BME280;6919;52.344;14.518;2023-03-22T12:04:53;100047.34;;;16.36;100.00
13695;BME280;6919;52.344;14.518;2023-03-22T12:07:29;100034.88;;;16.41;100.00
13695;BME280;6919;52.344;14.518;2023-03-22T12:10:04;100034.84;;;16.28;100.00
13695;BME280;6919;52.344;14.518;2023-03-22T12:12:45;100020.97;;;15.78;100.00
13695;BME280;6919;52.344;14.518;2023-03-22T12:15:21;100029.03;;;15.71;100.00
13695;BME280;6919;52.344;14.518;2023-03-22T12:17:58;100029.56;;;16.01;100.00
13695;BME280;6919;52.344;14.518;2023-03-22T12:20:38;100025.41;;;15.98;100.00
13695;BME280;6919;52.344;14.518;2023-03-22T12:23:14;100021.66;;;15.99;100.00
13695;BME280;6919;52.344;14.518;2023-03-22T12:25:49;100027.69;;;16.01;100.00
13695;BME280;6919;52.344;14.518;2023-03-22T12:28:27;100030.22;;;16.09;100.00
13695;BME280;6919;52.344;14.518;2023-03-22T12:30:55;100029.81;;;16.12;100.00
13695;BME280;6919;52.344;14.518;2023-03-22T12:33:28;100033.72;;;15.97;100.00
13695;BME280;6919;52.344;14.518;2023-03-22T12:36:00;100035.47;;;15.70;100.00
13695;BME280;6919;52.344;14.518;2023-03-22T12:38:38;100031.69;;;15.58;100.00
13695;BME280;6919;52.344;14.518;2023-03-22T12:41:14;100030.91;;;15.71;100.00
13695;BME280;6919;52.344;14.518;2023-03-22T12:43:54;100034.81;;;15.62;100.00
13695;BME280;6919;52.344;14.518;2023-03-22T12:46:27;100032.47;;;15.52;100.00
13695;BME280;6919;52.344;14.518;2023-03-22T12:49:02;100032.41;;;15.46;100.00
13695;BME280;6919;52.344;14.518;2023-03-22T12:51:34;100027.44;;;15.43;100.00
13695;BME280;6919;52.344;14.518;2023-03-22T12:54:03;100029.31;;;15.49;100.00
13695;BME280;6919;52.344;14.518;2023-03-22T12:56:39;100032.50;;;15.59;100.00
13695;BME280;6919;52.344;14.518;2023-03-22T12:59:18;100028.63;;;15.40;100.00
13695;BME280;6919;52.344;14.518;2023-03-22T13:01:53;100018.31;;;15.50;100.00
13695;BME280;6919;52.344;14.518;2023-03-22T13:04:31;100012.91;;;15.50;100.00
13695;BME280;6919;52.344;14.518;2023-03-22T13:07:15;100003.09;;;15.90;100.00
13695;BME280;6919;52.344;14.518;2023-03-22T13:09:46;100011.13;;;16.30;100.00
13695;BME280;6919;52.344;14.518;2023-03-22T13:12:32;100003.63;;;16.19;100.00
13695;BME280;6919;52.344;14.518;2023-03-22T13:15:31;100003.63;;;16.32;100.00
13695;BME280;6919;52.344;14.518;2023-03-22T13:18:29;99994.53;;;16.79;100.00